Time;durP1;ratioP1;P1;durP2;ratioP2;P2;SDS_P1;SDS_P2;PMS_P1;PMS_P2;Temp;Humidity;BMP_temperature;BMP_pressure;BME280_temperature;BME280_humidity;BME280_pressure;Samples;Min_cycle;Max_cycle;Signal;HPM_P1;HPM_P2
2024/01/03 00:00:08;;;;;;;7.47;1.30;;;9.60;99.90;;;;;;5098110;28;20462;-57
2024/01/03 00:02:34;;;;;;;7.53;1.38;;;9.40;99.90;;;;;;5106280;28;20106;-57
2024/01/03 00:05:00;;;;;;;7.00;1.13;;;9.60;99.90;;;;;;5113364;28;20161;-58
2024/01/03 00:07:26;;;;;;;11.13;1.58;;;9.60;99.90;;;;;;5113251;28;20085;-56
2024/01/03 00:09:56;;;;;;;12.02;1.50;;;9.60;99.90;;;;;;5109113;28;20036;-57
2024/01/03 00:12:25;;;;;;;8.88;1.52;;;9.40;99.90;;;;;;5111559;28;20038;-59
2024/01/03 00:14:51;;;;;;;11.88;1.55;;;9.50;99.90;;;;;;5113057;28;20035;-57
2024/01/03 00:17:18;;;;;;;10.50;1.67;;;9.50;99.90;;;;;;5113101;28;20103;-58
2024/01/03 00:19:44;;;;;;;8.30;1.35;;;9.40;99.90;;;;;;5106367;28;20031;-58
2024/01/03 00:22:13;;;;;;;10.30;1.23;;;9.30;99.90;;;;;;5099967;28;20030;-58
2024/01/03 00:24:48;;;;;;;11.82;1.50;;;9.50;99.90;;;;;;5100437;28;20460;-57
2024/01/03 00:27:15;;;;;;;14.13;2.42;;;9.50;99.90;;;;;;5098386;28;20043;-56
2024/01/03 00:29:52;;;;;;;11.88;2.03;;;9.30;99.90;;;;;;5112713;28;20110;-57
2024/01/03 00:32:19;;;;;;;9.00;2.40;;;9.40;99.90;;;;;;5113163;28;20548;-57
2024/01/03 00:34:45;;;;;;;12.30;2.00;;;9.40;99.90;;;;;;5084425;28;20053;-57
2024/01/03 00:37:20;;;;;;;13.13;1.73;;;9.20;99.90;;;;;;5029334;28;20046;-58
2024/01/03 00:39:46;;;;;;;11.65;1.65;;;9.30;99.90;;;;;;5028734;28;20125;-57
2024/01/03 00:42:12;;;;;;;18.27;2.00;;;9.20;99.90;;;;;;5029254;28;20049;-58
2024/01/03 00:44:37;;;;;;;12.63;2.40;;;9.30;99.90;;;;;;5029590;28;20052;-56
2024/01/03 00:47:04;;;;;;;10.75;2.33;;;9.30;99.90;;;;;;5028119;28;20480;-56
2024/01/03 00:49:29;;;;;;;8.38;1.48;;;9.10;99.90;;;;;;5029323;28;20034;-58
2024/01/03 00:51:56;;;;;;;8.77;1.65;;;9.10;99.90;;;;;;5029442;28;20038;-58
2024/01/03 00:54:23;;;;;;;9.45;1.77;;;9.00;99.90;;;;;;5027709;28;20049;-58
2024/01/03 00:56:49;;;;;;;12.85;1.83;;;8.90;99.90;;;;;;5029453;28;20652;-57
2024/01/03 00:59:16;;;;;;;9.82;1.50;;;8.80;99.90;;;;;;5056348;28;20532;-57
2024/01/03 01:01:42;;;;;;;14.65;1.60;;;8.90;99.90;;;;;;5112388;28;20039;-58
2024/01/03 01:04:09;;;;;;;14.95;1.95;;;9.00;99.90;;;;;;5112164;28;20112;-58
2024/01/03 01:06:35;;;;;;;10.18;1.85;;;9.10;99.90;;;;;;5094641;28;20399;-57
2024/01/03 01:09:03;;;;;;;12.73;2.00;;;9.10;99.90;;;;;;5028528;28;20034;-56
2024/01/03 01:11:30;;;;;;;9.98;1.60;;;9.30;99.90;;;;;;5029190;28;20041;-58
2024/01/03 01:13:55;;;;;;;12.02;1.80;;;9.20;99.90;;;;;;5029170;28;20047;-57
2024/01/03 01:16:21;;;;;;;14.48;2.65;;;9.20;99.90;;;;;;5028823;28;20037;-58
2024/01/03 01:18:47;;;;;;;14.13;1.95;;;9.30;99.90;;;;;;5028470;28;20683;-57
2024/01/03 01:21:13;;;;;;;9.07;1.60;;;9.40;99.90;;;;;;5028812;28;20033;-58
2024/01/03 01:23:42;;;;;;;14.55;1.83;;;9.20;99.90;;;;;;5028487;28;20739;-58
2024/01/03 01:26:08;;;;;;;10.52;1.83;;;9.30;99.90;;;;;;5088562;28;20107;-57
2024/01/03 01:28:34;;;;;;;12.70;1.88;;;9.40;99.90;;;;;;5111628;27;20040;-58
2024/01/03 01:30:59;;;;;;;10.35;1.83;;;9.20;99.90;;;;;;5111731;28;20092;-57
2024/01/03 01:33:25;;;;;;;13.60;2.28;;;9.50;99.90;;;;;;5111549;28;20035;-55
2024/01/03 01:35:51;;;;;;;9.85;1.50;;;9.40;99.90;;;;;;5111298;28;20043;-56
2024/01/03 01:38:16;;;;;;;8.32;1.08;;;9.50;99.90;;;;;;5111474;28;20469;-56
2024/01/03 01:40:42;;;;;;;7.93;1.40;;;9.50;99.90;;;;;;5105337;28;20054;-58
2024/01/03 01:43:08;;;;;;;7.57;0.85;;;9.50;99.90;;;;;;5047723;28;20088;-57
2024/01/03 01:45:34;;;;;;;5.63;1.17;;;9.50;99.90;;;;;;5087638;28;20108;-56
2024/01/03 01:48:00;;;;;;;7.45;1.40;;;9.50;99.90;;;;;;5088511;28;20122;-60
2024/01/03 01:50:26;;;;;;;10.90;1.58;;;9.70;99.90;;;;;;5099113;28;20038;-58
2024/01/03 01:52:53;;;;;;;10.15;1.77;;;9.70;99.90;;;;;;5080230;28;20035;-56
2024/01/03 01:55:20;;;;;;;10.93;1.60;;;9.50;99.90;;;;;;5094281;28;20056;-57
2024/01/03 01:57:47;;;;;;;8.85;1.75;;;9.70;99.90;;;;;;5066449;28;20054;-57
2024/01/03 02:00:13;;;;;;;9.55;1.60;;;9.60;99.90;;;;;;5065355;28;20047;-57
2024/01/03 02:02:41;;;;;;;9.15;1.52;;;9.70;99.90;;;;;;5063219;28;20080;-56
2024/01/03 02:05:08;;;;;;;7.50;1.90;;;9.60;99.90;;;;;;5086106;28;20032;-56
2024/01/03 02:07:35;;;;;;;11.35;1.65;;;9.50;99.90;;;;;;5077694;28;20390;-58
2024/01/03 02:10:02;;;;;;;8.10;1.60;;;9.60;99.90;;;;;;5086214;28;20126;-57
2024/01/03 02:12:28;;;;;;;8.52;1.63;;;9.40;99.90;;;;;;5074144;28;20043;-57
2024/01/03 02:14:55;;;;;;;6.10;1.08;;;9.50;99.90;;;;;;5082333;28;20482;-57
2024/01/03 02:17:21;;;;;;;10.18;1.40;;;9.40;99.90;;;;;;5020421;28;20077;-57
2024/01/03 02:19:47;;;;;;;9.77;1.33;;;9.50;99.90;;;;;;5090343;28;20050;-57
2024/01/03 02:22:13;;;;;;;8.43;1.58;;;9.30;99.90;;;;;;5100895;28;20031;-58
2024/01/03 02:24:38;;;;;;;6.60;1.58;;;9.10;99.90;;;;;;5095367;28;21003;-57
2024/01/03 02:27:04;;;;;;;11.05;1.42;;;9.60;99.90;;;;;;5078246;28;20502;-57
2024/01/03 02:29:30;;;;;;;11.30;2.00;;;9.20;99.90;;;;;;5086954;28;20093;-57
2024/01/03 02:31:56;;;;;;;10.02;1.77;;;9.00;99.90;;;;;;5082495;28;20034;-57
2024/01/03 02:34:21;;;;;;;15.98;2.55;;;9.30;99.90;;;;;;5058513;28;20047;-57
2024/01/03 02:36:51;;;;;;;14.30;2.03;;;9.00;99.90;;;;;;5103823;28;20039;-58
2024/01/03 02:39:17;;;;;;;14.65;2.13;;;9.50;99.90;;;;;;5110139;28;20050;-57
2024/01/03 02:41:43;;;;;;;19.45;3.00;;;9.00;99.90;;;;;;5110325;28;20043;-58
2024/01/03 02:44:10;;;;;;;17.77;2.25;;;9.60;99.90;;;;;;5110053;28;20131;-59
2024/01/03 02:46:35;;;;;;;17.25;2.40;;;9.20;99.90;;;;;;5112131;28;20093;-57
2024/01/03 02:49:01;;;;;;;17.38;2.67;;;9.10;99.90;;;;;;5114179;28;20031;-59
2024/01/03 02:51:27;;;;;;;12.40;2.50;;;9.90;99.90;;;;;;5114099;28;20110;-59
2024/01/03 02:53:52;;;;;;;18.15;2.95;;;9.40;99.90;;;;;;5115019;28;20047;-58
2024/01/03 02:56:18;;;;;;;21.42;3.40;;;9.40;99.90;;;;;;5114776;28;20047;-58
2024/01/03 02:58:44;;;;;;;30.83;4.70;;;9.70;99.90;;;;;;5115050;28;20040;-58
2024/01/03 03:01:09;;;;;;;30.38;3.90;;;9.00;99.90;;;;;;5114591;28;20032;-57
2024/01/03 03:03:35;;;;;;;27.55;4.22;;;9.10;99.90;;;;;;5073820;28;20509;-57
2024/01/03 03:06:03;;;;;;;24.88;3.55;;;9.00;99.90;;;;;;5042799;28;20042;-57
2024/01/03 03:08:28;;;;;;;22.20;4.45;;;9.70;99.90;;;;;;5114457;28;20478;-60
2024/01/03 03:10:54;;;;;;;20.38;4.13;;;9.10;99.90;;;;;;5114159;28;20028;-57
2024/01/03 03:13:20;;;;;;;27.35;3.47;;;9.10;99.90;;;;;;5035266;28;20080;-57
2024/01/03 03:15:46;;;;;;;19.83;3.33;;;9.70;99.90;;;;;;5030850;28;20049;-57
2024/01/03 03:18:13;;;;;;;23.08;3.45;;;9.50;99.90;;;;;;5030625;28;20048;-57
2024/01/03 03:20:39;;;;;;;25.65;3.42;;;9.40;99.90;;;;;;5030357;28;20050;-57
2024/01/03 03:23:04;;;;;;;23.77;3.38;;;9.50;99.90;;;;;;5030866;28;20502;-58
2024/01/03 03:25:30;;;;;;;25.15;3.28;;;9.80;99.90;;;;;;5030651;28;20430;-59
2024/01/03 03:27:55;;;;;;;27.35;3.30;;;10.00;99.90;;;;;;5110074;28;20432;-57
2024/01/03 03:30:22;;;;;;;21.40;4.72;;;9.80;99.90;;;;;;5030729;28;20072;-57
2024/01/03 03:32:48;;;;;;;18.92;3.45;;;10.10;99.90;;;;;;5030713;28;20046;-58
2024/01/03 03:35:14;;;;;;;22.52;3.80;;;9.90;99.90;;;;;;5037467;28;20054;-58
2024/01/03 03:37:40;;;;;;;17.65;4.07;;;10.00;99.90;;;;;;5101965;28;20093;-57
2024/01/03 03:40:07;;;;;;;18.88;3.25;;;10.10;99.90;;;;;;5101865;28;20035;-58
2024/01/03 03:42:33;;;;;;;17.20;3.83;;;10.00;99.90;;;;;;5102108;28;20043;-57
2024/01/03 03:44:59;;;;;;;16.90;3.22;;;10.00;99.90;;;;;;5113554;28;20032;-58
2024/01/03 03:47:25;;;;;;;21.50;3.70;;;10.10;99.90;;;;;;5113901;27;20092;-58
2024/01/03 03:49:50;;;;;;;19.55;2.97;;;10.20;99.90;;;;;;5032956;28;20121;-58
2024/01/03 03:52:16;;;;;;;26.60;3.65;;;10.20;99.90;;;;;;5030000;28;20421;-59
2024/01/03 03:54:42;;;;;;;19.20;3.05;;;10.20;99.90;;;;;;5030321;28;20094;-58
2024/01/03 03:57:07;;;;;;;27.77;4.25;;;10.20;99.90;;;;;;5032675;28;20037;-58
2024/01/03 03:59:34;;;;;;;22.42;3.75;;;10.10;99.90;;;;;;5112228;28;20095;-57
2024/01/03 04:02:00;;;;;;;21.60;3.13;;;10.30;99.90;;;;;;5007833;28;20039;-59
2024/01/03 04:04:25;;;;;;;22.20;3.67;;;10.20;99.90;;;;;;5113367;28;20054;-58
2024/01/03 04:06:51;;;;;;;22.90;3.25;;;10.30;99.90;;;;;;5025691;28;20071;-58
2024/01/03 04:09:19;;;;;;;18.67;3.45;;;10.30;99.90;;;;;;5113263;28;20475;-58
2024/01/03 04:11:45;;;;;;;23.15;4.38;;;10.30;99.90;;;;;;5031176;28;20124;-58
2024/01/03 04:14:11;;;;;;;20.75;3.13;;;10.20;99.90;;;;;;5046833;28;20118;-58
2024/01/03 04:16:37;;;;;;;19.98;3.63;;;10.40;99.90;;;;;;5105247;28;20475;-58
2024/01/03 04:19:03;;;;;;;25.08;3.63;;;10.40;99.90;;;;;;5113285;28;20035;-58
2024/01/03 04:21:30;;;;;;;22.90;3.78;;;10.20;99.90;;;;;;5113255;28;20126;-59
2024/01/03 04:23:55;;;;;;;20.27;3.65;;;10.30;99.90;;;;;;5113338;28;20051;-59
2024/01/03 04:26:22;;;;;;;36.80;4.38;;;10.30;99.90;;;;;;5113063;28;20036;-58
2024/01/03 04:28:47;;;;;;;18.52;3.55;;;10.30;99.90;;;;;;5113227;28;20036;-58
2024/01/03 04:31:13;;;;;;;30.63;4.03;;;10.20;99.90;;;;;;5112828;28;20200;-58
2024/01/03 04:33:39;;;;;;;18.08;3.13;;;10.20;99.90;;;;;;5110810;28;20059;-57
2024/01/03 04:36:05;;;;;;;18.70;3.85;;;10.20;99.90;;;;;;5098338;28;20043;-59
2024/01/03 04:38:31;;;;;;;21.30;4.32;;;10.20;99.90;;;;;;5087513;28;20036;-58
2024/01/03 04:40:56;;;;;;;26.15;4.30;;;10.20;99.90;;;;;;5102606;28;20505;-58
2024/01/03 04:43:22;;;;;;;23.33;3.78;;;10.30;99.90;;;;;;5033829;28;20390;-58
2024/01/03 04:45:48;;;;;;;21.95;3.92;;;10.20;99.90;;;;;;5112724;28;20082;-57
2024/01/03 04:48:14;;;;;;;19.65;4.03;;;10.30;99.90;;;;;;5112374;28;20424;-59
2024/01/03 04:50:39;;;;;;;24.85;5.03;;;10.30;99.90;;;;;;5112666;28;20051;-58
2024/01/03 04:53:05;;;;;;;29.75;4.22;;;10.30;99.90;;;;;;5104873;28;20366;-58
2024/01/03 04:55:31;;;;;;;29.65;4.40;;;10.30;99.90;;;;;;5032889;28;20041;-58
2024/01/03 04:57:57;;;;;;;27.85;3.45;;;10.40;99.90;;;;;;5049794;28;20049;-58
2024/01/03 05:00:23;;;;;;;25.35;4.00;;;10.30;99.90;;;;;;5109016;28;20085;-57
2024/01/03 05:02:49;;;;;;;20.02;3.45;;;10.40;99.90;;;;;;5112202;28;20110;-58
2024/01/03 05:05:14;;;;;;;27.70;3.53;;;10.40;99.90;;;;;;5112272;28;20088;-58
2024/01/03 05:07:40;;;;;;;20.95;3.13;;;10.40;99.90;;;;;;5112430;28;20050;-58
2024/01/03 05:10:08;;;;;;;18.70;3.40;;;10.50;99.90;;;;;;5110953;28;20093;-57
2024/01/03 05:12:34;;;;;;;20.98;3.40;;;10.30;99.90;;;;;;5112209;28;21327;-57
2024/01/03 05:15:00;;;;;;;23.02;3.92;;;10.40;99.90;;;;;;5112403;28;20036;-58
2024/01/03 05:17:27;;;;;;;23.98;4.45;;;10.30;99.90;;;;;;5111985;28;20045;-58
2024/01/03 05:19:52;;;;;;;21.40;3.47;;;10.30;99.90;;;;;;5028369;28;20051;-58
2024/01/03 05:22:18;;;;;;;18.98;3.33;;;10.30;99.90;;;;;;5100600;28;20044;-58
2024/01/03 05:24:44;;;;;;;25.67;3.88;;;10.30;99.90;;;;;;5111655;28;20123;-58
2024/01/03 05:27:10;;;;;;;21.33;3.67;;;10.40;99.90;;;;;;5028011;28;20033;-57
2024/01/03 05:29:36;;;;;;;30.58;5.00;;;10.20;99.90;;;;;;5028678;28;20399;-58
2024/01/03 05:32:01;;;;;;;23.55;3.45;;;10.20;99.90;;;;;;5028591;28;20064;-59
2024/01/03 05:34:27;;;;;;;22.30;4.10;;;10.30;99.90;;;;;;5028330;28;20065;-58
2024/01/03 05:36:52;;;;;;;26.50;4.15;;;10.00;99.90;;;;;;5028245;28;20167;-57
2024/01/03 05:39:18;;;;;;;19.80;3.90;;;10.30;99.90;;;;;;5027252;28;20038;-58
2024/01/03 05:41:44;;;;;;;22.85;3.30;;;10.30;99.90;;;;;;5028202;28;20064;-57
2024/01/03 05:44:09;;;;;;;21.85;4.75;;;10.20;99.90;;;;;;5028696;28;20471;-57
2024/01/03 05:46:35;;;;;;;21.00;2.95;;;10.20;99.90;;;;;;5078270;28;20469;-57
2024/01/03 05:49:01;;;;;;;25.00;3.33;;;10.40;99.90;;;;;;5111775;28;20571;-58
2024/01/03 05:51:26;;;;;;;21.10;3.20;;;10.40;99.90;;;;;;5027635;28;20053;-58
2024/01/03 05:53:52;;;;;;;22.27;3.30;;;10.30;99.90;;;;;;5028616;28;20041;-57
2024/01/03 05:56:18;;;;;;;17.42;3.03;;;10.50;99.90;;;;;;5028427;28;20048;-59
2024/01/03 05:58:43;;;;;;;23.02;3.60;;;10.40;99.90;;;;;;5104856;28;20047;-58
2024/01/03 06:01:10;;;;;;;23.25;3.55;;;10.50;99.90;;;;;;5105495;28;20039;-57
2024/01/03 06:03:36;;;;;;;20.15;3.35;;;10.50;99.90;;;;;;5110979;28;20123;-58
2024/01/03 06:06:02;;;;;;;29.33;4.43;;;10.50;99.90;;;;;;5110991;28;20035;-58
2024/01/03 06:08:27;;;;;;;25.15;3.28;;;10.50;99.90;;;;;;5111482;28;20062;-57
2024/01/03 06:10:54;;;;;;;27.20;4.28;;;10.50;99.90;;;;;;5111149;28;20264;-58
2024/01/03 06:13:21;;;;;;;22.42;3.55;;;10.30;99.90;;;;;;5111084;28;20125;-58
2024/01/03 06:15:47;;;;;;;24.00;4.07;;;10.40;99.90;;;;;;5111124;28;20044;-57
2024/01/03 06:18:13;;;;;;;19.35;3.47;;;10.40;99.90;;;;;;5111013;28;20146;-58
2024/01/03 06:20:40;;;;;;;22.75;4.28;;;10.30;99.90;;;;;;5111035;28;20047;-58
2024/01/03 06:23:05;;;;;;;26.85;3.95;;;10.30;99.90;;;;;;5104246;28;20090;-57
2024/01/03 06:25:32;;;;;;;24.30;4.07;;;10.30;99.90;;;;;;5110856;28;20063;-57
2024/01/03 06:27:57;;;;;;;29.50;4.82;;;10.40;99.90;;;;;;5111190;28;20031;-58
2024/01/03 06:30:23;;;;;;;26.67;3.63;;;10.30;99.90;;;;;;5111226;28;20036;-56
2024/01/03 06:32:49;;;;;;;20.38;3.60;;;10.20;99.90;;;;;;5110721;28;20110;-57
2024/01/03 06:35:15;;;;;;;24.30;3.63;;;10.40;99.90;;;;;;5086867;28;20416;-58
2024/01/03 06:37:41;;;;;;;22.90;3.60;;;10.40;99.90;;;;;;5032814;28;20038;-58
2024/01/03 06:40:08;;;;;;;20.45;3.67;;;10.20;99.90;;;;;;5107193;28;20115;-58
2024/01/03 06:42:33;;;;;;;20.73;3.75;;;10.40;99.90;;;;;;5109791;28;20032;-56
2024/01/03 06:44:59;;;;;;;25.48;3.97;;;10.30;99.90;;;;;;5107478;28;20038;-57
2024/01/03 06:47:25;;;;;;;25.10;3.55;;;10.30;99.90;;;;;;5107930;28;20131;-58
2024/01/03 06:49:51;;;;;;;22.80;3.85;;;10.20;99.90;;;;;;5110853;28;20501;-57
2024/01/03 06:52:16;;;;;;;24.10;4.07;;;10.20;99.90;;;;;;5110889;28;20028;-58
2024/01/03 06:54:42;;;;;;;26.70;3.85;;;10.30;99.90;;;;;;5110951;28;20034;-57
2024/01/03 06:57:08;;;;;;;22.85;3.30;;;10.20;99.90;;;;;;5111061;28;20469;-58
2024/01/03 06:59:36;;;;;;;22.88;3.90;;;10.20;99.90;;;;;;5028411;28;20502;-58
2024/01/03 07:02:02;;;;;;;29.50;3.60;;;10.30;99.90;;;;;;5027375;28;20037;-57
2024/01/03 07:04:28;;;;;;;24.60;3.40;;;10.20;99.90;;;;;;5027745;28;20084;-58
2024/01/03 07:06:54;;;;;;;19.58;3.15;;;10.30;99.90;;;;;;5045166;28;20039;-57
2024/01/03 07:09:20;;;;;;;20.35;3.35;;;10.30;99.90;;;;;;5110483;28;20036;-56
2024/01/03 07:11:46;;;;;;;15.80;3.33;;;10.20;99.90;;;;;;5110423;28;20486;-58
2024/01/03 07:14:13;;;;;;;23.52;3.85;;;10.20;99.90;;;;;;5103464;28;20375;-58
2024/01/03 07:16:42;;;;;;;27.02;3.75;;;10.30;99.90;;;;;;5110498;28;20071;-57
2024/01/03 07:19:08;;;;;;;26.55;3.30;;;10.20;99.90;;;;;;5110760;28;20035;-57
2024/01/03 07:21:33;;;;;;;27.52;3.72;;;10.10;99.90;;;;;;5029323;28;20034;-57
2024/01/03 07:23:59;;;;;;;21.40;3.58;;;10.10;99.90;;;;;;5026980;28;20042;-58
2024/01/03 07:26:25;;;;;;;29.73;4.47;;;10.30;99.90;;;;;;5025836;28;20043;-57
2024/01/03 07:28:51;;;;;;;25.02;3.75;;;10.20;99.90;;;;;;5026962;28;20038;-57
2024/01/03 07:31:16;;;;;;;27.38;4.53;;;10.10;99.90;;;;;;5027063;28;20042;-57
2024/01/03 07:33:42;;;;;;;29.23;5.22;;;10.00;99.90;;;;;;5076466;28;20048;-58
2024/01/03 07:36:08;;;;;;;27.98;3.72;;;10.10;99.90;;;;;;5114248;28;20047;-58
2024/01/03 07:38:34;;;;;;;22.20;3.72;;;10.00;99.90;;;;;;5112225;27;20517;-57
2024/01/03 07:41:00;;;;;;;29.20;3.75;;;10.10;99.90;;;;;;5113593;28;20500;-56
2024/01/03 07:43:29;;;;;;;30.25;4.60;;;10.10;99.90;;;;;;5113590;28;20513;-56
2024/01/03 07:45:55;;;;;;;20.92;3.95;;;10.00;99.90;;;;;;5114099;28;20027;-57
2024/01/03 07:48:21;;;;;;;23.40;3.80;;;10.00;99.90;;;;;;5113607;27;20416;-57
2024/01/03 07:50:47;;;;;;;24.70;3.75;;;10.00;99.90;;;;;;5113702;28;20043;-57
2024/01/03 07:53:13;;;;;;;24.55;3.90;;;10.00;99.90;;;;;;5110677;28;20061;-57
2024/01/03 07:55:38;;;;;;;20.15;2.95;;;10.20;99.90;;;;;;5031815;28;20439;-57
2024/01/03 07:58:04;;;;;;;19.55;3.78;;;10.20;99.90;;;;;;5029275;28;20042;-57
2024/01/03 08:00:30;;;;;;;20.98;3.28;;;10.20;99.90;;;;;;5029769;28;20041;-57
2024/01/03 08:02:57;;;;;;;24.15;4.20;;;10.20;99.90;;;;;;5029850;28;20069;-57
2024/01/03 08:05:22;;;;;;;23.50;3.80;;;10.30;99.90;;;;;;5029632;28;20102;-57
2024/01/03 08:07:49;;;;;;;22.75;3.88;;;10.10;99.90;;;;;;5085259;28;20035;-57
2024/01/03 08:10:14;;;;;;;22.92;3.70;;;10.20;99.90;;;;;;5075401;28;20093;-57
2024/01/03 08:12:41;;;;;;;31.27;4.38;;;10.20;99.90;;;;;;5009464;28;20482;-57
2024/01/03 08:15:07;;;;;;;28.48;4.25;;;10.30;99.90;;;;;;5031160;28;20460;-57
2024/01/03 08:17:33;;;;;;;21.10;4.22;;;10.20;99.90;;;;;;5029742;28;20116;-58
2024/01/03 08:19:59;;;;;;;26.05;4.57;;;10.10;99.90;;;;;;5018558;28;20129;-58
2024/01/03 08:22:25;;;;;;;25.88;3.83;;;10.10;99.90;;;;;;5014027;28;20030;-57
2024/01/03 08:24:50;;;;;;;25.05;4.22;;;10.00;99.90;;;;;;5024817;28;20185;-58
2024/01/03 08:27:17;;;;;;;32.42;5.68;;;10.00;99.90;;;;;;5035923;28;20077;-57
2024/01/03 08:29:44;;;;;;;31.55;4.65;;;10.00;99.90;;;;;;5027433;28;20122;-57
2024/01/03 08:32:10;;;;;;;33.33;4.30;;;10.10;99.90;;;;;;5002368;28;20493;-57
2024/01/03 08:34:36;;;;;;;24.35;4.18;;;10.10;99.90;;;;;;5021777;28;20054;-57
2024/01/03 08:37:01;;;;;;;24.10;4.40;;;10.00;99.90;;;;;;5023378;28;20060;-56
2024/01/03 08:39:27;;;;;;;23.90;3.85;;;10.00;99.90;;;;;;5032268;28;20042;-57
2024/01/03 08:41:53;;;;;;;30.17;4.75;;;10.20;99.90;;;;;;5026119;28;20045;-57
2024/01/03 08:44:23;;;;;;;23.83;3.72;;;10.10;99.90;;;;;;5000943;28;20049;-56
2024/01/03 08:46:48;;;;;;;29.15;4.30;;;10.10;99.90;;;;;;5022100;28;20041;-57
2024/01/03 08:49:14;;;;;;;28.33;3.50;;;10.10;99.90;;;;;;5032935;28;20026;-57
2024/01/03 08:51:45;;;;;;;27.90;4.40;;;10.20;99.90;;;;;;4999992;28;20041;-57
2024/01/03 08:54:11;;;;;;;21.08;4.40;;;10.30;99.90;;;;;;4999838;28;20117;-57
2024/01/03 08:56:39;;;;;;;27.73;4.22;;;10.20;99.90;;;;;;5017376;28;21108;-57
2024/01/03 08:59:05;;;;;;;22.13;3.65;;;10.10;99.90;;;;;;5011113;28;20046;-56
2024/01/03 09:01:34;;;;;;;19.48;3.72;;;10.20;99.90;;;;;;5023476;28;20053;-57
2024/01/03 09:04:00;;;;;;;22.42;3.92;;;10.20;99.90;;;;;;5029608;28;20061;-58
2024/01/03 09:06:26;;;;;;;21.73;3.40;;;10.30;99.90;;;;;;5027018;28;20035;-59
2024/01/03 09:08:54;;;;;;;24.27;3.55;;;10.20;99.90;;;;;;5024173;28;20042;-58
2024/01/03 09:11:24;;;;;;;20.13;4.13;;;10.10;99.90;;;;;;5018784;28;20205;-57
2024/01/03 09:13:49;;;;;;;20.70;3.42;;;10.20;99.90;;;;;;5035731;28;20061;-57
2024/01/03 09:16:20;;;;;;;23.70;3.35;;;10.30;99.90;;;;;;5016730;28;20135;-58
2024/01/03 09:18:47;;;;;;;14.52;3.17;;;10.20;99.90;;;;;;5003662;28;20038;-56
2024/01/03 09:21:13;;;;;;;17.75;2.97;;;10.30;99.90;;;;;;5059103;28;20127;-57
2024/01/03 09:23:39;;;;;;;17.05;3.00;;;10.10;99.90;;;;;;5109531;28;20039;-58
2024/01/03 09:26:05;;;;;;;23.45;3.58;;;10.20;99.90;;;;;;5027673;28;20040;-58
2024/01/03 09:28:32;;;;;;;17.02;3.38;;;10.20;99.90;;;;;;5026118;28;20042;-57
2024/01/03 09:30:57;;;;;;;18.38;2.75;;;10.00;99.90;;;;;;5027440;28;20041;-58
2024/01/03 09:33:23;;;;;;;18.40;2.85;;;10.10;99.90;;;;;;5027601;28;20060;-56
2024/01/03 09:35:49;;;;;;;15.57;2.67;;;10.00;99.90;;;;;;5025924;28;20132;-57
2024/01/03 09:38:15;;;;;;;16.60;3.03;;;10.10;99.90;;;;;;5098335;28;20027;-57
2024/01/03 09:40:43;;;;;;;18.02;2.60;;;10.00;99.90;;;;;;5110107;28;20069;-57
2024/01/03 09:43:12;;;;;;;25.85;3.10;;;10.20;99.90;;;;;;5110551;28;20048;-57
2024/01/03 09:45:38;;;;;;;20.48;2.90;;;10.10;99.90;;;;;;5111374;28;20311;-57
2024/01/03 09:48:05;;;;;;;21.73;2.78;;;10.20;99.90;;;;;;5111573;28;20082;-58
2024/01/03 09:50:32;;;;;;;25.92;3.75;;;10.10;99.90;;;;;;5103091;28;20027;-58
2024/01/03 09:52:58;;;;;;;22.08;3.85;;;10.20;99.90;;;;;;5027864;28;20037;-58
2024/01/03 09:55:24;;;;;;;24.17;3.33;;;10.30;99.90;;;;;;5027711;28;20038;-58
2024/01/03 09:57:50;;;;;;;19.98;3.63;;;10.20;99.90;;;;;;5030086;28;20042;-57
2024/01/03 10:00:16;;;;;;;23.73;4.00;;;10.10;99.90;;;;;;5073735;28;20032;-56
2024/01/03 10:02:47;;;;;;;27.10;4.28;;;10.10;99.90;;;;;;5086357;28;20040;-57
2024/01/03 10:05:20;;;;;;;20.60;3.42;;;10.30;99.90;;;;;;5073395;28;20102;-56
2024/01/03 10:07:46;;;;;;;29.40;4.15;;;10.10;99.90;;;;;;5109855;28;20031;-57
2024/01/03 10:10:12;;;;;;;25.48;3.55;;;10.20;99.90;;;;;;5109784;28;20402;-57
2024/01/03 10:12:38;;;;;;;31.27;4.55;;;10.30;99.90;;;;;;5111248;28;20489;-58
2024/01/03 10:15:17;;;;;;;31.55;4.07;;;10.10;99.90;;;;;;5028681;28;20125;-56
2024/01/03 10:17:46;;;;;;;26.05;4.20;;;10.10;99.90;;;;;;5027832;28;20037;-56
2024/01/03 10:20:29;;;;;;;25.73;4.40;;;10.30;99.90;;;;;;5027477;28;20094;-58
2024/01/03 10:23:09;;;;;;;25.92;4.53;;;10.30;99.90;;;;;;5103532;28;20583;-56
2024/01/03 10:25:36;;;;;;;27.33;4.82;;;10.30;99.90;;;;;;5029225;28;20029;-57
2024/01/03 10:28:04;;;;;;;34.45;4.63;;;10.50;99.90;;;;;;5063780;28;20107;-58
2024/01/03 10:30:30;;;;;;;34.97;4.97;;;10.30;99.90;;;;;;5110591;28;20035;-57
2024/01/03 10:33:00;;;;;;;30.13;4.90;;;10.30;99.90;;;;;;5110988;28;20509;-57
2024/01/03 10:35:33;;;;;;;28.42;4.80;;;10.60;99.90;;;;;;5110728;28;20063;-57
2024/01/03 10:38:00;;;;;;;25.77;4.32;;;10.50;99.90;;;;;;5075940;28;20351;-57
2024/01/03 10:40:36;;;;;;;32.55;4.93;;;10.60;99.90;;;;;;5072605;28;20044;-57
2024/01/03 10:43:03;;;;;;;34.33;5.03;;;10.40;99.90;;;;;;5090520;28;20030;-58
2024/01/03 10:45:30;;;;;;;32.72;5.15;;;10.60;99.90;;;;;;5086562;28;20484;-58
2024/01/03 10:47:57;;;;;;;27.42;4.25;;;10.40;99.90;;;;;;5100153;28;20494;-58
2024/01/03 10:50:23;;;;;;;29.63;4.47;;;10.40;99.90;;;;;;5059824;28;20026;-58
2024/01/03 10:52:54;;;;;;;29.20;4.93;;;10.50;99.90;;;;;;5041194;28;20129;-56
2024/01/03 10:55:25;;;;;;;36.53;4.93;;;10.40;99.90;;;;;;5094327;28;20101;-57
2024/01/03 10:58:08;;;;;;;31.33;4.45;;;10.30;99.90;;;;;;5092504;28;20036;-58
2024/01/03 11:01:00;;;;;;;15.85;3.00;;;10.30;99.90;;;;;;5085887;28;20046;-58
2024/01/03 11:03:37;;;;;;;22.92;3.03;;;10.30;99.90;;;;;;5066687;28;20090;-58
2024/01/03 11:06:23;;;;;;;20.90;2.85;;;10.30;99.90;;;;;;5104382;28;20035;-58
2024/01/03 11:08:53;;;;;;;16.05;2.90;;;10.30;99.90;;;;;;4998981;28;20046;-58
2024/01/03 11:11:32;;;;;;;16.00;2.58;;;10.20;99.90;;;;;;5072075;28;20108;-58
2024/01/03 11:13:58;;;;;;;14.75;2.42;;;10.20;99.90;;;;;;5101286;28;20093;-58
2024/01/03 11:16:39;;;;;;;20.00;3.17;;;10.00;99.90;;;;;;5064260;28;20601;-58
2024/01/03 11:19:08;;;;;;;16.88;2.72;;;10.00;99.90;;;;;;5019950;28;20052;-58
2024/01/03 11:21:37;;;;;;;27.15;3.13;;;10.20;99.90;;;;;;5093765;28;20043;-57
2024/01/03 11:24:06;;;;;;;15.88;2.85;;;9.80;99.90;;;;;;5084202;28;20042;-58
2024/01/03 11:26:56;;;;;;;20.50;3.17;;;9.80;99.90;;;;;;5071116;28;20028;-58
2024/01/03 11:29:39;;;;;;;23.83;3.38;;;10.20;99.90;;;;;;5098208;28;20043;-58
2024/01/03 11:32:14;;;;;;;19.75;3.03;;;10.20;99.90;;;;;;5092279;28;20247;-60
2024/01/03 11:34:41;;;;;;;23.23;3.05;;;10.00;99.90;;;;;;5003476;28;20063;-58
2024/01/03 11:37:12;;;;;;;19.58;3.30;;;9.80;99.90;;;;;;5059916;28;20442;-59
2024/01/03 11:39:43;;;;;;;19.00;3.47;;;9.80;99.90;;;;;;5046227;28;20042;-58
2024/01/03 11:42:09;;;;;;;20.20;2.72;;;10.20;99.90;;;;;;5078797;28;20035;-58
2024/01/03 11:44:35;;;;;;;18.15;2.97;;;9.80;99.90;;;;;;5069953;28;20035;-59
2024/01/03 11:47:05;;;;;;;15.70;2.90;;;10.10;99.90;;;;;;5058611;28;20174;-58
2024/01/03 11:49:34;;;;;;;18.63;2.85;;;9.90;99.90;;;;;;5065357;28;20038;-58
2024/01/03 11:52:01;;;;;;;13.90;2.92;;;9.60;99.90;;;;;;5095638;28;20035;-58
2024/01/03 11:54:32;;;;;;;23.70;2.70;;;9.70;99.90;;;;;;5066266;28;20070;-58
2024/01/03 11:56:58;;;;;;;13.18;2.70;;;10.00;99.90;;;;;;5068356;28;20132;-58
2024/01/03 11:59:24;;;;;;;17.95;2.85;;;10.10;99.90;;;;;;5050123;28;20050;-59
2024/01/03 12:01:57;;;;;;;20.27;3.22;;;9.70;99.90;;;;;;5076927;28;20032;-58
2024/01/03 12:04:24;;;;;;;16.23;2.40;;;10.00;99.90;;;;;;5018787;28;20577;-58
2024/01/03 12:07:13;;;;;;;19.98;2.70;;;9.60;99.90;;;;;;5103913;28;20107;-58
2024/01/03 12:09:40;;;;;;;18.17;3.00;;;10.00;99.90;;;;;;5103779;28;20044;-58
2024/01/03 12:12:07;;;;;;;18.42;2.85;;;10.00;99.90;;;;;;5031865;28;20040;-58
2024/01/03 12:14:32;;;;;;;17.38;2.20;;;9.80;99.90;;;;;;5113157;28;20161;-58
2024/01/03 12:16:58;;;;;;;20.63;3.00;;;9.50;99.90;;;;;;5105543;28;20134;-58
2024/01/03 12:19:30;;;;;;;18.13;2.53;;;9.70;99.90;;;;;;5053299;28;20087;-58
2024/01/03 12:21:57;;;;;;;19.77;3.17;;;9.60;99.90;;;;;;5091869;28;20032;-59
2024/01/03 12:24:39;;;;;;;17.33;2.25;;;9.40;99.90;;;;;;5112990;28;20035;-58
2024/01/03 12:27:09;;;;;;;15.48;2.40;;;9.80;99.90;;;;;;5024120;28;20032;-58
2024/01/03 12:29:35;;;;;;;10.68;2.10;;;9.80;99.90;;;;;;5112636;28;20023;-59
2024/01/03 12:32:20;;;;;;;15.20;2.08;;;9.80;99.90;;;;;;5100196;27;20385;-61
2024/01/03 12:34:46;;;;;;;;;;;9.80;99.90;;;;;;5103922;28;20575;-59
2024/01/03 12:37:13;;;;;;;10.45;1.60;;;9.20;99.90;;;;;;5089672;28;19942;-59
2024/01/03 12:39:40;;;;;;;13.63;2.33;;;9.30;99.90;;;;;;5091747;28;20043;-58